createdAt,value
2022-10-29T00:00:57.959Z,4.60
2022-10-29T00:03:26.632Z,4.70
2022-10-29T00:06:05.611Z,5.40
2022-10-29T00:08:36.708Z,4.60
2022-10-29T00:11:20.872Z,6.10
2022-10-29T00:13:55.635Z,4.37
2022-10-29T00:16:27.513Z,4.40
2022-10-29T00:18:56.899Z,4.90
2022-10-29T00:21:27.035Z,8.03
2022-10-29T00:23:54.162Z,4.90
2022-10-29T00:26:23.316Z,5.20
2022-10-29T00:28:56.323Z,4.60
2022-10-29T00:31:25.030Z,6.70
2022-10-29T00:33:55.102Z,5.00
2022-10-29T00:36:29.939Z,5.20
2022-10-29T00:38:57.504Z,5.10
2022-10-29T00:41:29.573Z,4.70
2022-10-29T00:44:15.000Z,4.33
2022-10-29T00:46:56.759Z,5.30
2022-10-29T00:49:26.428Z,5.10
2022-10-29T00:51:53.776Z,4.83
2022-10-29T00:54:20.988Z,4.03
2022-10-29T00:56:58.632Z,5.97
2022-10-29T00:59:26.613Z,4.57
2022-10-29T01:01:55.792Z,5.73
2022-10-29T01:04:25.085Z,4.43
2022-10-29T01:06:54.411Z,4.90
2022-10-29T01:09:21.258Z,4.60
2022-10-29T01:12:51.437Z,4.90
2022-10-29T01:15:47.175Z,5.00
2022-10-29T01:18:35.421Z,4.20
2022-10-29T01:22:26.191Z,3.90
2022-10-29T01:25:35.865Z,5.13
2022-10-29T01:28:41.774Z,5.27
2022-10-29T01:31:47.638Z,4.97
2022-10-29T01:35:04.620Z,5.37
2022-10-29T01:38:14.570Z,5.30
2022-10-29T01:41:39.909Z,5.20
2022-10-29T01:44:44.153Z,4.60
2022-10-29T01:47:21.154Z,5.37
2022-10-29T01:50:01.914Z,5.10
2022-10-29T01:52:35.030Z,4.50
2022-10-29T01:55:02.923Z,4.90
2022-10-29T01:57:38.862Z,5.30
2022-10-29T02:00:15.834Z,5.73
2022-10-29T02:03:31.239Z,5.00
2022-10-29T02:06:47.807Z,5.13
2022-10-29T02:09:35.359Z,7.27
2022-10-29T02:12:25.250Z,7.00
2022-10-29T02:15:17.796Z,5.10
2022-10-29T02:17:45.326Z,5.20
2022-10-29T02:20:15.850Z,5.10
2022-10-29T02:22:43.635Z,4.27
2022-10-29T02:25:11.887Z,4.60
2022-10-29T02:27:38.805Z,4.90
2022-10-29T02:30:07.111Z,5.10
2022-10-29T02:32:34.179Z,5.00
2022-10-29T02:35:01.935Z,4.43
2022-10-29T02:37:29.588Z,5.17
2022-10-29T02:39:56.610Z,5.60
2022-10-29T02:42:23.580Z,5.40
2022-10-29T02:44:50.439Z,5.47
2022-10-29T02:47:17.820Z,4.20
2022-10-29T02:49:44.795Z,5.23
2022-10-29T02:52:11.714Z,5.40
2022-10-29T02:54:39.253Z,5.10
2022-10-29T02:57:07.141Z,5.03
2022-10-29T02:59:33.996Z,5.30
2022-10-29T03:02:01.041Z,5.70
2022-10-29T03:04:28.036Z,6.17
2022-10-29T03:06:54.984Z,5.20
2022-10-29T03:09:22.133Z,5.07
2022-10-29T03:11:49.020Z,5.27
2022-10-29T03:14:15.946Z,5.70
2022-10-29T03:16:42.800Z,5.30
2022-10-29T03:19:10.136Z,5.30
2022-10-29T03:21:37.856Z,5.40
2022-10-29T03:24:05.747Z,5.27
2022-10-29T03:26:32.658Z,5.63
2022-10-29T03:28:59.684Z,5.90
2022-10-29T03:31:26.689Z,4.47
2022-10-29T03:33:53.621Z,5.30
2022-10-29T03:36:20.651Z,4.80
2022-10-29T03:38:47.572Z,5.20
2022-10-29T03:41:15.099Z,5.30
2022-10-29T03:43:42.144Z,6.10
2022-10-29T03:46:09.262Z,5.80
2022-10-29T03:48:36.327Z,5.90
2022-10-29T03:51:06.277Z,5.67
2022-10-29T03:53:36.186Z,5.60
2022-10-29T03:56:04.389Z,5.10
2022-10-29T03:58:31.337Z,5.53
2022-10-29T04:01:05.890Z,6.30
2022-10-29T04:03:36.713Z,5.50
2022-10-29T04:06:15.678Z,4.73
2022-10-29T04:08:43.044Z,5.53
2022-10-29T04:11:13.546Z,5.73
2022-10-29T04:13:41.046Z,5.60
2022-10-29T04:16:08.247Z,5.00
2022-10-29T04:18:35.172Z,5.80
2022-10-29T04:22:40.377Z,6.10
2022-10-29T04:29:25.250Z,5.33
2022-10-29T04:31:52.381Z,5.63
2022-10-29T04:34:19.247Z,5.83
2022-10-29T04:36:46.086Z,5.87
2022-10-29T04:39:13.013Z,6.30
2022-10-29T04:41:39.890Z,5.30
2022-10-29T04:44:06.729Z,6.00
2022-10-29T04:46:33.721Z,6.27
2022-10-29T04:49:00.853Z,6.50
2022-10-29T04:51:28.114Z,6.40
2022-10-29T04:53:55.011Z,6.17
2022-10-29T04:56:21.913Z,6.03
2022-10-29T04:58:52.601Z,6.43
2022-10-29T05:01:19.895Z,5.70
2022-10-29T05:03:46.928Z,6.07
2022-10-29T05:06:13.814Z,6.30
2022-10-29T05:08:40.826Z,6.83
2022-10-29T05:11:08.178Z,6.63
2022-10-29T05:13:35.504Z,6.90
2022-10-29T05:16:02.691Z,7.10
2022-10-29T05:18:29.538Z,7.60
2022-10-29T05:20:57.278Z,7.70
2022-10-29T05:23:24.472Z,7.80
2022-10-29T05:25:52.198Z,7.80
2022-10-29T05:28:23.234Z,8.70
2022-10-29T05:30:53.367Z,8.60
2022-10-29T05:33:24.178Z,7.50
2022-10-29T05:35:51.940Z,7.77
2022-10-29T05:38:19.602Z,8.00
2022-10-29T05:40:46.948Z,7.57
2022-10-29T05:43:17.101Z,9.10
2022-10-29T05:45:44.693Z,8.37
2022-10-29T05:48:13.452Z,9.00
2022-10-29T05:50:40.500Z,8.17
2022-10-29T05:53:12.691Z,7.63
2022-10-29T05:55:40.768Z,7.40
2022-10-29T05:58:13.432Z,7.90
2022-10-29T06:00:44.870Z,7.40
2022-10-29T06:03:22.099Z,7.20
2022-10-29T06:05:50.691Z,9.20
2022-10-29T06:08:18.531Z,7.20
2022-10-29T06:10:45.554Z,7.77
2022-10-29T06:13:19.182Z,5.93
2022-10-29T06:15:48.307Z,6.60
2022-10-29T06:18:16.472Z,7.17
2022-10-29T06:20:43.598Z,5.90
2022-10-29T06:23:11.564Z,7.00
2022-10-29T06:25:38.441Z,7.43
2022-10-29T06:28:15.009Z,8.23
2022-10-29T06:30:48.991Z,8.07
2022-10-29T06:33:18.239Z,7.63
2022-10-29T06:35:45.869Z,9.17
2022-10-29T06:38:13.879Z,7.97
2022-10-29T06:40:42.396Z,8.97
2022-10-29T06:43:12.749Z,9.90
2022-10-29T06:45:39.866Z,9.10
2022-10-29T06:48:07.448Z,9.37
2022-10-29T06:50:34.671Z,9.70
2022-10-29T06:53:05.985Z,10.37
2022-10-29T06:55:36.199Z,9.40
2022-10-29T06:58:16.440Z,11.20
2022-10-29T07:00:45.705Z,10.80
2022-10-29T07:03:16.137Z,11.90
2022-10-29T07:05:43.659Z,10.87
2022-10-29T07:08:11.636Z,10.50
2022-10-29T07:10:39.461Z,10.20
2022-10-29T07:13:06.441Z,10.07
2022-10-29T07:15:33.284Z,10.93
2022-10-29T07:18:08.071Z,11.07
2022-10-29T07:20:40.062Z,10.40
2022-10-29T07:23:08.020Z,10.33
2022-10-29T07:25:40.434Z,10.60
2022-10-29T07:28:14.811Z,8.60
2022-10-29T07:30:43.507Z,9.40
2022-10-29T07:33:11.207Z,8.93
2022-10-29T07:35:41.551Z,9.27
2022-10-29T07:38:12.209Z,10.43
2022-10-29T07:40:50.805Z,10.23
2022-10-29T07:43:20.533Z,9.30
2022-10-29T07:45:51.108Z,10.57
2022-10-29T07:48:20.984Z,10.10
2022-10-29T07:50:50.693Z,8.80
2022-10-29T07:53:17.927Z,9.00
2022-10-29T07:55:51.377Z,9.83
2022-10-29T07:58:18.262Z,9.90
2022-10-29T08:03:39.082Z,10.43
2022-10-29T08:06:06.586Z,9.60
2022-10-29T08:08:34.988Z,8.87
2022-10-29T08:11:04.804Z,8.10
2022-10-29T08:13:32.775Z,9.60
2022-10-29T08:15:59.803Z,8.57
2022-10-29T08:18:27.735Z,7.40
2022-10-29T08:20:54.694Z,9.60
2022-10-29T08:23:21.678Z,9.37
2022-10-29T08:25:48.548Z,9.40
2022-10-29T08:28:16.409Z,8.03
2022-10-29T08:30:44.076Z,8.00
2022-10-29T08:33:11.685Z,8.37
2022-10-29T08:35:38.619Z,8.40
2022-10-29T08:38:05.480Z,8.20
2022-10-29T08:41:03.931Z,9.00
2022-10-29T08:44:10.827Z,8.83
2022-10-29T08:46:53.562Z,8.53
2022-10-29T08:49:39.003Z,8.00
2022-10-29T08:52:33.762Z,7.07
2022-10-29T08:55:20.959Z,6.97
2022-10-29T08:58:21.362Z,5.97
2022-10-29T09:00:57.027Z,5.50
2022-10-29T09:03:29.436Z,6.33
2022-10-29T09:06:14.786Z,7.43
2022-10-29T09:09:39.801Z,5.90
2022-10-29T09:13:00.199Z,5.43
2022-10-29T09:15:57.538Z,6.07
2022-10-29T09:18:32.523Z,6.43
2022-10-29T09:21:38.852Z,6.20
2022-10-29T09:24:40.351Z,5.30
2022-10-29T09:27:24.551Z,4.90
2022-10-29T09:30:22.197Z,5.10
2022-10-29T09:33:11.661Z,6.77
2022-10-29T09:35:53.855Z,5.50
2022-10-29T09:38:42.567Z,6.10
2022-10-29T09:41:12.576Z,5.50
2022-10-29T09:44:23.573Z,6.13
2022-10-29T09:47:43.113Z,5.90
2022-10-29T09:50:45.672Z,6.57
2022-10-29T09:53:12.672Z,7.00
2022-10-29T09:55:46.280Z,6.90
2022-10-29T09:58:26.936Z,7.57
2022-10-29T10:00:56.975Z,6.80
2022-10-29T10:03:59.308Z,7.00
2022-10-29T10:06:26.183Z,6.67
2022-10-29T10:09:02.785Z,6.47
2022-10-29T10:11:43.628Z,6.23
2022-10-29T10:14:24.128Z,6.87
2022-10-29T10:17:01.380Z,6.20
2022-10-29T10:19:32.544Z,6.13
2022-10-29T10:22:05.738Z,5.97
2022-10-29T10:24:38.135Z,7.07
2022-10-29T10:27:31.433Z,6.60
2022-10-29T10:30:04.161Z,7.07
2022-10-29T10:32:32.247Z,5.83
2022-10-29T10:34:59.106Z,6.40
2022-10-29T10:37:31.482Z,5.70
2022-10-29T10:40:05.786Z,5.87
2022-10-29T10:42:46.890Z,5.83
2022-10-29T10:45:31.050Z,5.20
2022-10-29T10:47:59.499Z,6.63
2022-10-29T10:50:33.435Z,5.80
2022-10-29T10:53:23.226Z,5.17
2022-10-29T10:56:00.069Z,6.57
2022-10-29T10:58:50.479Z,5.13
2022-10-29T11:01:32.053Z,5.77
2022-10-29T11:04:22.330Z,6.00
2022-10-29T11:06:53.402Z,5.60
2022-10-29T11:09:38.815Z,6.20
2022-10-29T11:12:15.871Z,5.77
2022-10-29T11:15:20.434Z,5.30
2022-10-29T11:17:54.780Z,5.20
2022-10-29T11:20:35.166Z,4.90
2022-10-29T11:23:34.109Z,4.87
2022-10-29T11:26:25.220Z,5.60
2022-10-29T11:29:35.118Z,5.87
2022-10-29T11:32:48.333Z,5.97
2022-10-29T11:35:44.750Z,5.30
2022-10-29T11:38:40.622Z,5.27
2022-10-29T11:41:49.834Z,4.93
2022-10-29T11:44:20.636Z,5.17
2022-10-29T11:47:23.462Z,5.43
2022-10-29T11:50:38.712Z,5.73
2022-10-29T11:53:47.722Z,4.70
2022-10-29T11:56:58.935Z,5.73
2022-10-29T12:00:10.160Z,4.67
2022-10-29T12:03:28.957Z,4.60
2022-10-29T12:06:18.212Z,5.00
2022-10-29T12:09:43.946Z,4.90
2022-10-29T12:12:53.721Z,4.93
2022-10-29T12:16:03.699Z,4.60
2022-10-29T12:19:20.902Z,4.80
2022-10-29T12:22:21.666Z,5.00
2022-10-29T12:25:13.264Z,4.87
2022-10-29T12:28:07.884Z,5.90
2022-10-29T12:30:59.395Z,5.03
2022-10-29T12:34:25.824Z,4.90
2022-10-29T12:37:57.750Z,5.17
2022-10-29T12:40:33.716Z,4.87
2022-10-29T12:43:13.475Z,5.67
2022-10-29T12:46:57.357Z,5.10
2022-10-29T12:50:05.144Z,4.30
2022-10-29T12:52:50.431Z,4.10
2022-10-29T12:55:21.832Z,4.37
2022-10-29T12:57:52.884Z,4.93
2022-10-29T13:00:54.423Z,5.00
2022-10-29T13:04:02.248Z,4.37
2022-10-29T13:06:46.953Z,4.93
2022-10-29T13:09:35.947Z,4.13
2022-10-29T13:12:37.288Z,4.00
2022-10-29T13:15:16.241Z,4.10
2022-10-29T13:17:48.204Z,4.40
2022-10-29T13:20:40.704Z,5.60
2022-10-29T13:23:31.823Z,4.60
2022-10-29T13:26:03.295Z,4.83
2022-10-29T13:28:30.116Z,4.67
2022-10-29T13:30:59.933Z,4.40
2022-10-29T13:33:26.692Z,4.17
2022-10-29T13:36:32.389Z,4.30
2022-10-29T13:39:18.428Z,3.67
2022-10-29T13:41:55.174Z,3.80
2022-10-29T13:44:26.032Z,3.73
2022-10-29T13:47:15.964Z,4.23
2022-10-29T13:49:49.966Z,3.60
2022-10-29T13:52:21.825Z,4.10
2022-10-29T13:55:06.959Z,3.43
2022-10-29T13:58:06.152Z,3.90
2022-10-29T14:00:37.777Z,4.33
2022-10-29T14:03:54.549Z,4.20
2022-10-29T14:06:34.257Z,4.07
2022-10-29T14:09:38.341Z,4.00
2022-10-29T14:12:10.446Z,3.73
2022-10-29T14:15:11.553Z,3.90
2022-10-29T14:17:39.902Z,4.23
2022-10-29T14:20:27.383Z,3.73
2022-10-29T14:22:55.221Z,3.60
2022-10-29T14:25:28.751Z,4.30
2022-10-29T14:28:34.430Z,4.17
2022-10-29T14:31:17.014Z,3.80
2022-10-29T14:33:59.627Z,4.30
2022-10-29T14:36:46.025Z,4.00
2022-10-29T14:39:58.295Z,4.20
2022-10-29T14:42:56.414Z,3.67
2022-10-29T14:45:28.610Z,4.47
2022-10-29T14:48:15.969Z,4.80
2022-10-29T14:50:51.424Z,4.20
2022-10-29T14:53:35.054Z,4.33
2022-10-29T14:56:18.370Z,4.23
2022-10-29T14:58:46.711Z,4.10
2022-10-29T15:01:20.251Z,4.00
2022-10-29T15:03:56.015Z,4.03
2022-10-29T15:06:29.778Z,3.93
2022-10-29T15:09:04.173Z,4.33
2022-10-29T15:11:42.335Z,4.10
2022-10-29T15:15:10.584Z,4.07
2022-10-29T15:18:07.517Z,4.30
2022-10-29T15:20:46.475Z,4.50
2022-10-29T15:23:29.625Z,3.97
2022-10-29T15:26:15.111Z,4.50
2022-10-29T15:28:47.387Z,4.40
2022-10-29T15:31:46.556Z,4.10
2022-10-29T15:34:23.701Z,5.10
2022-10-29T15:36:58.367Z,3.90
2022-10-29T15:39:59.227Z,4.93
2022-10-29T15:42:34.355Z,5.03
2022-10-29T15:45:23.776Z,4.90
2022-10-29T15:48:36.337Z,5.00
2022-10-29T15:51:04.204Z,5.20
2022-10-29T15:53:31.108Z,5.00
2022-10-29T15:55:58.131Z,4.80
2022-10-29T15:58:25.232Z,5.13
2022-10-29T16:00:52.172Z,4.47
2022-10-29T16:03:26.512Z,4.13
2022-10-29T16:06:07.332Z,4.40
2022-10-29T16:08:40.804Z,5.63
2022-10-29T16:11:16.364Z,4.40
2022-10-29T16:13:43.333Z,4.30
2022-10-29T16:16:17.255Z,3.80
2022-10-29T16:18:52.499Z,4.40
2022-10-29T16:21:25.801Z,5.63
2022-10-29T16:23:53.616Z,3.70
2022-10-29T16:26:26.329Z,4.00
2022-10-29T16:28:53.659Z,5.07
2022-10-29T16:31:26.751Z,5.13
2022-10-29T16:34:01.061Z,4.30
2022-10-29T16:36:27.896Z,6.00
2022-10-29T16:38:54.816Z,3.80
2022-10-29T16:41:22.291Z,4.23
2022-10-29T16:43:49.205Z,4.53
2022-10-29T16:46:16.285Z,4.30
2022-10-29T16:48:43.424Z,3.77
2022-10-29T16:51:10.371Z,4.40
2022-10-29T16:53:37.454Z,5.07
2022-10-29T16:56:05.381Z,4.10
2022-10-29T16:58:32.296Z,4.10
2022-10-29T17:01:05.633Z,5.10
2022-10-29T17:03:35.869Z,4.80
2022-10-29T17:06:07.283Z,4.67
2022-10-29T17:08:36.305Z,4.80
2022-10-29T17:11:09.772Z,5.10
2022-10-29T17:13:37.844Z,4.57
2022-10-29T17:16:14.957Z,5.20
2022-10-29T17:18:41.886Z,5.47
2022-10-29T17:21:09.909Z,5.27
2022-10-29T17:23:37.222Z,5.33
2022-10-29T17:26:04.258Z,5.80
2022-10-29T17:28:31.475Z,6.10
2022-10-29T17:30:58.363Z,5.60
2022-10-29T17:33:25.241Z,5.47
2022-10-29T17:36:15.574Z,5.00
2022-10-29T17:38:42.455Z,4.70
2022-10-29T17:41:09.568Z,5.00
2022-10-29T17:43:36.486Z,5.87
2022-10-29T17:46:04.172Z,5.40
2022-10-29T17:48:31.043Z,5.37
2022-10-29T17:51:02.562Z,5.50
2022-10-29T17:53:31.496Z,5.70
2022-10-29T17:56:01.072Z,7.10
2022-10-29T17:58:28.283Z,5.80
2022-10-29T18:00:55.304Z,5.77
2022-10-29T18:03:26.379Z,5.13
2022-10-29T18:05:53.214Z,4.93
2022-10-29T18:08:20.067Z,5.10
2022-10-29T18:10:46.915Z,5.70
2022-10-29T18:13:13.763Z,4.10
2022-10-29T18:15:40.711Z,5.10
2022-10-29T18:18:07.570Z,4.97
2022-10-29T18:20:34.419Z,4.90
2022-10-29T18:23:01.620Z,4.53
2022-10-29T18:25:28.789Z,5.30
2022-10-29T18:27:56.649Z,5.73
2022-10-29T18:30:23.694Z,6.10
2022-10-29T18:32:50.631Z,6.83
2022-10-29T18:35:17.548Z,6.27
2022-10-29T18:37:46.692Z,5.37
2022-10-29T18:40:13.665Z,5.07
2022-10-29T18:42:40.584Z,5.57
2022-10-29T18:45:08.860Z,5.30
2022-10-29T18:47:35.852Z,5.70
2022-10-29T18:50:02.960Z,5.83
2022-10-29T18:52:29.805Z,5.40
2022-10-29T18:54:56.859Z,6.70
2022-10-29T18:57:23.852Z,6.90
2022-10-29T18:59:50.704Z,6.33
2022-10-29T19:02:17.673Z,6.90
2022-10-29T19:04:44.612Z,5.50
2022-10-29T19:07:11.493Z,6.20
2022-10-29T19:09:38.353Z,6.87
2022-10-29T19:12:05.632Z,8.63
2022-10-29T19:14:32.500Z,7.80
2022-10-29T19:16:59.364Z,7.67
2022-10-29T19:19:26.253Z,6.20
2022-10-29T19:21:53.122Z,5.60
2022-10-29T19:24:20.172Z,6.30
2022-10-29T19:26:47.696Z,6.70
2022-10-29T19:29:15.065Z,6.90
2022-10-29T19:31:45.989Z,7.80
2022-10-29T19:34:12.994Z,6.93
2022-10-29T19:36:40.153Z,7.63
2022-10-29T19:39:07.943Z,6.87
2022-10-29T19:41:35.292Z,5.67
2022-10-29T19:44:03.885Z,5.83
2022-10-29T19:46:31.442Z,7.20
2022-10-29T19:48:59.190Z,5.63
2022-10-29T19:51:26.781Z,7.77
2022-10-29T19:53:54.271Z,6.80
2022-10-29T19:56:21.855Z,5.60
2022-10-29T19:58:49.359Z,6.17
2022-10-29T20:01:18.917Z,6.30
2022-10-29T20:03:47.489Z,7.00
2022-10-29T20:06:17.583Z,7.30
2022-10-29T20:08:44.723Z,6.93
2022-10-29T20:11:11.877Z,6.10
2022-10-29T20:13:39.985Z,6.20
2022-10-29T20:16:20.567Z,6.90
2022-10-29T20:18:49.770Z,6.43
2022-10-29T20:21:17.242Z,5.67
2022-10-29T20:23:44.711Z,6.37
2022-10-29T20:26:12.122Z,6.40
2022-10-29T20:28:39.443Z,6.40
2022-10-29T20:31:16.106Z,5.90
2022-10-29T20:33:52.644Z,7.57
2022-10-29T20:36:20.282Z,7.00
2022-10-29T20:38:54.478Z,7.33
2022-10-29T20:41:22.550Z,6.70
2022-10-29T20:44:00.969Z,6.70
2022-10-29T20:46:28.911Z,7.40
2022-10-29T20:48:55.956Z,7.70
2022-10-29T20:51:24.289Z,6.73
2022-10-29T20:53:52.479Z,7.27
2022-10-29T20:56:22.565Z,7.43
2022-10-29T20:58:49.483Z,6.70
2022-10-29T21:01:19.990Z,6.07
2022-10-29T21:03:50.043Z,6.97
2022-10-29T21:06:18.531Z,6.87
2022-10-29T21:08:48.131Z,6.23
2022-10-29T21:11:18.366Z,6.60
2022-10-29T21:13:46.100Z,6.80
2022-10-29T21:16:28.779Z,6.50
2022-10-29T21:19:00.536Z,6.10
2022-10-29T21:21:30.634Z,8.10
2022-10-29T21:23:58.543Z,5.87
2022-10-29T21:26:28.426Z,6.30
2022-10-29T21:28:55.899Z,7.00
2022-10-29T21:31:24.136Z,7.60
2022-10-29T21:33:55.591Z,7.97
2022-10-29T21:36:23.450Z,8.47
2022-10-29T21:38:50.783Z,8.10
2022-10-29T21:41:18.275Z,7.63
2022-10-29T21:43:45.468Z,7.87
2022-10-29T21:46:12.368Z,8.40
2022-10-29T21:48:39.238Z,8.20
2022-10-29T21:51:16.024Z,6.77
2022-10-29T21:53:43.266Z,7.40
2022-10-29T21:56:14.773Z,7.67
2022-10-29T21:58:42.730Z,7.27
2022-10-29T22:01:17.005Z,6.60
2022-10-29T22:03:47.165Z,7.30
2022-10-29T22:06:22.511Z,8.60
2022-10-29T22:08:57.444Z,6.00
2022-10-29T22:11:27.488Z,5.70
2022-10-29T22:13:55.298Z,6.50
2022-10-29T22:16:23.160Z,5.80
2022-10-29T22:18:50.828Z,5.50
2022-10-29T22:21:22.516Z,6.77
2022-10-29T22:23:57.929Z,5.50
2022-10-29T22:26:30.140Z,6.03
2022-10-29T22:28:57.020Z,6.73
2022-10-29T22:31:24.862Z,5.67
2022-10-29T22:33:52.304Z,5.03
2022-10-29T22:36:26.750Z,6.00
2022-10-29T22:38:57.001Z,6.50
2022-10-29T22:41:25.963Z,5.40
2022-10-29T22:43:53.884Z,6.13
2022-10-29T22:46:22.024Z,5.80
2022-10-29T22:48:48.982Z,6.83
2022-10-29T22:51:26.605Z,6.53
2022-10-29T22:53:54.438Z,5.70
2022-10-29T22:56:27.557Z,7.50
2022-10-29T22:58:54.887Z,7.00
2022-10-29T23:01:29.520Z,6.90
2022-10-29T23:03:59.773Z,6.60
2022-10-29T23:06:28.044Z,6.30
2022-10-29T23:08:58.482Z,6.50
2022-10-29T23:11:32.009Z,6.60
2022-10-29T23:14:01.693Z,5.90
2022-10-29T23:16:33.283Z,5.60
2022-10-29T23:19:05.849Z,6.50
2022-10-29T23:21:33.435Z,6.23
2022-10-29T23:24:00.393Z,5.90
2022-10-29T23:26:27.639Z,5.90
2022-10-29T23:28:55.150Z,6.03
2022-10-29T23:31:27.591Z,5.90
2022-10-29T23:33:57.894Z,7.80
2022-10-29T23:36:27.793Z,6.33
2022-10-29T23:39:01.423Z,6.07
2022-10-29T23:41:30.870Z,6.30
2022-10-29T23:43:58.870Z,5.40
2022-10-29T23:46:25.807Z,6.50
2022-10-29T23:48:52.707Z,5.70
2022-10-29T23:51:20.217Z,5.50
2022-10-29T23:53:50.280Z,6.07
2022-10-29T23:56:20.130Z,5.67
2022-10-29T23:58:47.016Z,5.80
